Time;durP1;ratioP1;P1;durP2;ratioP2;P2;SDS_P1;SDS_P2;PMS_P1;PMS_P2;Temp;Humidity;BMP_temperature;BMP_pressure;BME280_temperature;BME280_humidity;BME280_pressure;Samples;Min_cycle;Max_cycle;Signal;HPM_P1;HPM_P2
2021/06/23 00:01:04;;;;;;;;;;;22.00;58.20;;;;;;491602;240;2172;-75
2021/06/23 00:03:06;;;;;;;;;;;22.00;58.10;;;;;;491656;240;949;-75
2021/06/23 00:05:07;;;;;;;;;;;22.00;58.20;;;;;;491649;240;1310;-75
2021/06/23 00:07:08;;;;;;;;;;;22.00;58.30;;;;;;491452;240;1123;-75
2021/06/23 00:09:11;;;;;;;;;;;22.00;58.30;;;;;;491558;240;984;-75
2021/06/23 00:11:12;;;;;;;;;;;22.00;58.20;;;;;;491560;240;1030;-75
2021/06/23 00:13:14;;;;;;;;;;;21.90;58.30;;;;;;491637;240;1015;-75
2021/06/23 00:15:15;;;;;;;;;;;22.00;58.20;;;;;;491576;240;1080;-75
2021/06/23 00:17:16;;;;;;;;;;;22.00;58.10;;;;;;491537;240;1097;-75
2021/06/23 00:19:18;;;;;;;;;;;22.00;58.00;;;;;;491619;240;1366;-75
2021/06/23 00:21:19;;;;;;;;;;;22.00;58.10;;;;;;491562;240;2196;-75
2021/06/23 00:23:20;;;;;;;;;;;22.00;58.10;;;;;;491638;240;938;-74
2021/06/23 00:25:22;;;;;;;;;;;22.00;58.00;;;;;;491643;240;963;-75
2021/06/23 00:27:24;;;;;;;;;;;22.00;58.10;;;;;;491614;240;998;-75
2021/06/23 00:29:25;;;;;;;;;;;22.00;58.10;;;;;;491607;240;1068;-75
2021/06/23 00:31:26;;;;;;;;;;;22.00;58.10;;;;;;491544;240;1206;-75
2021/06/23 00:33:28;;;;;;;;;;;22.10;58.10;;;;;;491637;240;1035;-75
2021/06/23 00:35:29;;;;;;;;;;;22.00;58.00;;;;;;491609;240;1529;-75
2021/06/23 00:37:30;;;;;;;;;;;22.10;57.90;;;;;;491567;240;1095;-75
2021/06/23 00:39:32;;;;;;;;;;;22.00;58.00;;;;;;491649;240;1004;-75
2021/06/23 00:41:33;;;;;;;;;;;22.00;58.00;;;;;;491559;240;2136;-75
2021/06/23 00:43:34;;;;;;;;;;;22.00;58.10;;;;;;491696;240;996;-75
2021/06/23 00:45:36;;;;;;;;;;;22.00;58.10;;;;;;491634;240;1136;-75
2021/06/23 00:47:37;;;;;;;;;;;22.00;58.00;;;;;;491570;240;1073;-75
2021/06/23 00:49:38;;;;;;;;;;;22.00;58.20;;;;;;491603;240;1168;-74
2021/06/23 00:51:40;;;;;;;;;;;22.00;58.10;;;;;;491599;240;1024;-74
2021/06/23 00:53:41;;;;;;;;;;;22.00;58.10;;;;;;491591;240;1005;-75
2021/06/23 00:55:42;;;;;;;;;;;21.90;58.20;;;;;;491573;240;1030;-75
2021/06/23 00:57:44;;;;;;;;;;;22.00;58.10;;;;;;491580;240;1009;-75
2021/06/23 00:59:45;;;;;;;;;;;21.90;58.30;;;;;;491629;240;1101;-75
2021/06/23 01:01:46;;;;;;;;;;;21.80;58.50;;;;;;491577;240;2175;-75
2021/06/23 01:03:48;;;;;;;;;;;21.80;58.50;;;;;;491655;240;922;-75
2021/06/23 01:05:49;;;;;;;;;;;21.80;58.60;;;;;;491611;240;1168;-75
2021/06/23 01:07:50;;;;;;;;;;;21.70;58.60;;;;;;491627;240;1006;-75
2021/06/23 01:09:52;;;;;;;;;;;21.70;58.70;;;;;;491626;240;1016;-74
2021/06/23 01:11:53;;;;;;;;;;;21.70;58.70;;;;;;491486;240;1114;-75
2021/06/23 01:13:55;;;;;;;;;;;21.80;58.70;;;;;;491587;240;946;-75
2021/06/23 01:15:58;;;;;;;;;;;21.80;58.60;;;;;;491558;240;1000;-75
2021/06/23 01:17:57;;;;;;;;;;;21.80;58.70;;;;;;491591;240;1518;-75
2021/06/23 01:19:59;;;;;;;;;;;21.80;58.50;;;;;;491652;240;1162;-72
2021/06/23 01:22:00;;;;;;;;;;;21.70;58.50;;;;;;491617;240;2164;-72
2021/06/23 01:24:01;;;;;;;;;;;21.80;58.50;;;;;;491615;240;951;-72
2021/06/23 01:26:03;;;;;;;;;;;21.80;58.60;;;;;;491564;240;1162;-72
2021/06/23 01:28:04;;;;;;;;;;;21.80;58.60;;;;;;491595;240;946;-72
2021/06/23 01:30:06;;;;;;;;;;;21.80;58.50;;;;;;491692;240;1110;-72
2021/06/23 01:32:07;;;;;;;;;;;21.70;58.60;;;;;;491638;240;1230;-72
2021/06/23 01:34:08;;;;;;;;;;;21.70;58.60;;;;;;491691;240;945;-72
2021/06/23 01:36:10;;;;;;;;;;;21.70;58.60;;;;;;491702;240;1283;-72
2021/06/23 01:38:11;;;;;;;;;;;21.70;58.70;;;;;;491671;240;1200;-72
2021/06/23 01:40:12;;;;;;;;;;;21.80;58.60;;;;;;491614;240;977;-72
2021/06/23 01:42:14;;;;;;;;;;;21.80;58.60;;;;;;491495;240;2176;-72
2021/06/23 01:44:15;;;;;;;;;;;21.80;58.60;;;;;;491612;240;950;-72
2021/06/23 01:46:16;;;;;;;;;;;21.70;58.60;;;;;;491592;240;1207;-72
2021/06/23 01:48:18;;;;;;;;;;;21.70;58.60;;;;;;491643;240;1108;-72
2021/06/23 01:50:19;;;;;;;;;;;21.70;58.60;;;;;;491688;240;1299;-72
2021/06/23 01:52:20;;;;;;;;;;;21.70;58.60;;;;;;491593;240;1052;-72
2021/06/23 01:54:22;;;;;;;;;;;21.70;58.60;;;;;;491803;240;973;-72
2021/06/23 01:56:23;;;;;;;;;;;21.70;58.60;;;;;;491636;240;1238;-72
2021/06/23 01:58:24;;;;;;;;;;;21.70;58.60;;;;;;491631;240;947;-73
2021/06/23 02:00:26;;;;;;;;;;;21.80;58.50;;;;;;491603;240;1177;-72
2021/06/23 02:02:27;;;;;;;;;;;21.70;58.60;;;;;;491589;240;2192;-72
2021/06/23 02:04:28;;;;;;;;;;;21.70;58.70;;;;;;491617;240;1101;-72
2021/06/23 02:06:30;;;;;;;;;;;21.70;58.60;;;;;;491519;240;1291;-72
2021/06/23 02:08:31;;;;;;;;;;;21.70;58.50;;;;;;491586;240;1068;-72
2021/06/23 02:10:33;;;;;;;;;;;21.70;58.50;;;;;;491658;240;999;-72
2021/06/23 02:12:34;;;;;;;;;;;21.70;58.50;;;;;;491553;240;1126;-72
2021/06/23 02:14:36;;;;;;;;;;;21.70;58.50;;;;;;491702;240;1009;-72
2021/06/23 02:16:37;;;;;;;;;;;21.70;58.60;;;;;;491654;240;970;-72
2021/06/23 02:18:38;;;;;;;;;;;21.80;58.30;;;;;;491614;240;1148;-72
2021/06/23 02:20:40;;;;;;;;;;;21.80;58.30;;;;;;491611;240;2183;-72
2021/06/23 02:22:41;;;;;;;;;;;21.80;58.40;;;;;;491562;240;1170;-72
2021/06/23 02:24:42;;;;;;;;;;;21.80;58.40;;;;;;491617;240;970;-72
2021/06/23 02:26:44;;;;;;;;;;;21.70;58.40;;;;;;491552;240;1170;-72
2021/06/23 02:28:45;;;;;;;;;;;21.70;58.50;;;;;;491628;240;1048;-72
2021/06/23 02:30:46;;;;;;;;;;;21.70;58.50;;;;;;491661;240;1119;-72
2021/06/23 02:32:48;;;;;;;;;;;21.70;58.50;;;;;;491569;240;1148;-72
2021/06/23 02:34:49;;;;;;;;;;;21.70;58.50;;;;;;491636;240;1093;-72
2021/06/23 02:36:50;;;;;;;;;;;21.70;58.50;;;;;;491648;240;1272;-72
2021/06/23 02:38:52;;;;;;;;;;;21.70;58.50;;;;;;491606;240;1047;-72
2021/06/23 02:40:53;;;;;;;;;;;21.70;58.60;;;;;;491685;240;2188;-72
2021/06/23 02:42:54;;;;;;;;;;;21.60;58.70;;;;;;491595;240;1093;-72
2021/06/23 02:44:56;;;;;;;;;;;21.60;58.80;;;;;;491699;240;1036;-72
2021/06/23 02:46:57;;;;;;;;;;;21.60;58.80;;;;;;491655;240;1198;-72
2021/06/23 02:48:58;;;;;;;;;;;21.60;58.80;;;;;;491593;240;969;-72
2021/06/23 02:51:00;;;;;;;;;;;21.60;58.80;;;;;;491597;240;1135;-72
2021/06/23 02:53:01;;;;;;;;;;;21.60;58.90;;;;;;491578;240;964;-72
2021/06/23 02:55:02;;;;;;;;;;;21.60;58.80;;;;;;491675;240;1294;-72
2021/06/23 02:57:04;;;;;;;;;;;21.60;58.90;;;;;;491692;240;1191;-72
2021/06/23 02:59:05;;;;;;;;;;;21.50;59.00;;;;;;491634;240;966;-72
2021/06/23 03:01:07;;;;;;;;;;;21.40;59.10;;;;;;491554;240;2199;-72
2021/06/23 03:03:08;;;;;;;;;;;21.40;59.30;;;;;;491625;240;977;-72
2021/06/23 03:05:09;;;;;;;;;;;21.40;59.40;;;;;;491626;240;1040;-72
2021/06/23 03:07:11;;;;;;;;;;;21.40;59.60;;;;;;491618;240;1144;-72
2021/06/23 03:09:13;;;;;;;;;;;21.30;59.70;;;;;;491627;240;1020;-72
2021/06/23 03:11:13;;;;;;;;;;;21.30;59.80;;;;;;491662;240;1289;-72
2021/06/23 03:13:15;;;;;;;;;;;21.30;59.80;;;;;;491594;240;952;-72
2021/06/23 03:15:16;;;;;;;;;;;21.30;59.80;;;;;;491644;240;1247;-72
2021/06/23 03:17:18;;;;;;;;;;;21.30;59.80;;;;;;491612;240;1035;-72
2021/06/23 03:19:19;;;;;;;;;;;21.30;59.70;;;;;;491701;240;1061;-72
2021/06/23 03:21:20;;;;;;;;;;;21.30;59.70;;;;;;491625;240;2191;-72
2021/06/23 03:23:22;;;;;;;;;;;21.30;59.80;;;;;;491618;240;971;-72
2021/06/23 03:25:23;;;;;;;;;;;21.30;59.80;;;;;;491617;240;930;-72
2021/06/23 03:27:24;;;;;;;;;;;21.30;59.80;;;;;;491661;240;1074;-72
2021/06/23 03:29:26;;;;;;;;;;;21.20;59.90;;;;;;491636;240;1035;-72
2021/06/23 03:31:28;;;;;;;;;;;21.20;59.90;;;;;;491556;240;1290;-72
2021/06/23 03:33:29;;;;;;;;;;;21.20;59.90;;;;;;491596;240;999;-72
2021/06/23 03:35:30;;;;;;;;;;;21.20;59.90;;;;;;491660;240;1120;-72
2021/06/23 03:37:32;;;;;;;;;;;21.20;59.90;;;;;;491578;240;1173;-72
2021/06/23 03:39:33;;;;;;;;;;;21.20;60.00;;;;;;491607;240;1043;-72
2021/06/23 03:41:34;;;;;;;;;;;21.20;60.00;;;;;;491579;240;2137;-72
2021/06/23 03:43:36;;;;;;;;;;;21.20;60.00;;;;;;491632;240;948;-72
2021/06/23 03:45:37;;;;;;;;;;;21.20;60.00;;;;;;491646;240;958;-72
2021/06/23 03:47:38;;;;;;;;;;;21.20;60.00;;;;;;491570;240;1151;-72
2021/06/23 03:49:40;;;;;;;;;;;21.20;60.00;;;;;;491640;240;969;-72
2021/06/23 03:51:41;;;;;;;;;;;21.20;60.00;;;;;;491564;240;1220;-72
2021/06/23 03:53:42;;;;;;;;;;;21.20;60.10;;;;;;491609;240;941;-72
2021/06/23 03:55:44;;;;;;;;;;;21.20;60.00;;;;;;491607;240;1210;-72
2021/06/23 03:57:45;;;;;;;;;;;21.20;60.00;;;;;;491496;240;1080;-72
2021/06/23 03:59:46;;;;;;;;;;;21.20;60.10;;;;;;491623;240;1063;-72
2021/06/23 04:01:48;;;;;;;;;;;21.20;60.00;;;;;;491575;240;2187;-72
2021/06/23 04:03:49;;;;;;;;;;;21.20;60.00;;;;;;491658;240;996;-72
2021/06/23 04:05:50;;;;;;;;;;;21.20;60.10;;;;;;491675;240;918;-72
2021/06/23 04:07:52;;;;;;;;;;;21.20;60.10;;;;;;491586;240;1207;-72
2021/06/23 04:09:53;;;;;;;;;;;21.20;60.20;;;;;;491625;240;1031;-72
2021/06/23 04:11:54;;;;;;;;;;;21.20;60.20;;;;;;491545;240;1226;-72
2021/06/23 04:13:56;;;;;;;;;;;21.20;60.30;;;;;;491578;240;968;-72
2021/06/23 04:15:57;;;;;;;;;;;21.20;60.30;;;;;;491535;240;954;-74
2021/06/23 04:17:58;;;;;;;;;;;21.20;60.30;;;;;;491488;240;1000;-74
2021/06/23 04:20:00;;;;;;;;;;;21.20;60.10;;;;;;491536;240;1124;-75
2021/06/23 04:22:01;;;;;;;;;;;21.20;60.20;;;;;;491484;240;2192;-75
2021/06/23 04:24:02;;;;;;;;;;;21.20;60.20;;;;;;491542;240;984;-75
2021/06/23 04:26:04;;;;;;;;;;;21.10;60.20;;;;;;491463;240;1115;-75
2021/06/23 04:28:05;;;;;;;;;;;21.20;60.30;;;;;;491583;240;1232;-75
2021/06/23 04:30:06;;;;;;;;;;;21.20;60.20;;;;;;491577;240;958;-75
2021/06/23 04:32:08;;;;;;;;;;;21.20;60.30;;;;;;491517;240;1065;-75
2021/06/23 04:34:09;;;;;;;;;;;21.20;60.20;;;;;;491534;240;963;-75
2021/06/23 04:36:10;;;;;;;;;;;21.20;60.20;;;;;;491472;240;1122;-75
2021/06/23 04:38:12;;;;;;;;;;;21.20;60.20;;;;;;491619;240;1239;-75
2021/06/23 04:40:13;;;;;;;;;;;21.20;60.30;;;;;;491476;240;966;-75
2021/06/23 04:42:14;;;;;;;;;;;21.10;60.30;;;;;;491516;240;2176;-75
2021/06/23 04:44:15;;;;;;;;;;;21.10;60.30;;;;;;491387;240;1155;-75
2021/06/23 04:46:17;;;;;;;;;;;21.10;60.30;;;;;;491384;240;1211;-75
2021/06/23 04:48:18;;;;;;;;;;;21.10;60.30;;;;;;491435;240;1089;-75
2021/06/23 04:50:19;;;;;;;;;;;21.10;60.30;;;;;;491385;240;1338;-75
2021/06/23 04:52:21;;;;;;;;;;;21.20;60.30;;;;;;491357;240;1199;-75
2021/06/23 04:54:22;;;;;;;;;;;21.20;60.30;;;;;;491306;240;959;-75
2021/06/23 04:56:23;;;;;;;;;;;21.10;60.20;;;;;;491330;240;1024;-75
2021/06/23 04:58:27;;;;;;;;;;;21.10;60.30;;;;;;491350;240;969;-75
2021/06/23 05:00:28;;;;;;;;;;;21.10;60.30;;;;;;491296;240;1243;-75
2021/06/23 05:02:29;;;;;;;;;;;21.10;60.30;;;;;;491269;240;2191;-75
2021/06/23 05:04:30;;;;;;;;;;;21.10;60.20;;;;;;491324;240;1044;-75
2021/06/23 05:06:32;;;;;;;;;;;21.10;60.20;;;;;;491352;240;1101;-75
2021/06/23 05:08:33;;;;;;;;;;;21.10;60.10;;;;;;491412;240;1277;-75
2021/06/23 05:10:34;;;;;;;;;;;21.10;60.20;;;;;;491315;240;1156;-75
2021/06/23 05:12:36;;;;;;;;;;;21.10;60.30;;;;;;491261;240;1146;-75
2021/06/23 05:14:37;;;;;;;;;;;21.10;60.30;;;;;;490773;240;1033;-75
2021/06/23 05:16:39;;;;;;;;;;;21.10;60.30;;;;;;490940;240;1341;-75
2021/06/23 05:18:40;;;;;;;;;;;21.10;60.30;;;;;;490916;240;963;-75
2021/06/23 05:20:41;;;;;;;;;;;21.10;60.20;;;;;;490872;240;1113;-75
2021/06/23 05:22:43;;;;;;;;;;;21.10;60.20;;;;;;490922;240;2184;-75
2021/06/23 05:24:44;;;;;;;;;;;21.10;60.30;;;;;;490902;240;989;-75
2021/06/23 05:26:45;;;;;;;;;;;21.10;60.20;;;;;;490946;240;1136;-75
2021/06/23 05:28:47;;;;;;;;;;;21.10;60.20;;;;;;490955;240;1204;-75
2021/06/23 05:30:48;;;;;;;;;;;21.10;60.10;;;;;;490895;240;1087;-75
2021/06/23 05:32:49;;;;;;;;;;;21.10;60.10;;;;;;490903;240;1152;-75
2021/06/23 05:34:51;;;;;;;;;;;21.10;60.20;;;;;;490952;240;1092;-75
2021/06/23 05:36:52;;;;;;;;;;;21.20;60.20;;;;;;490840;240;1297;-75
2021/06/23 05:38:53;;;;;;;;;;;21.10;60.10;;;;;;490889;240;1209;-75
2021/06/23 05:40:55;;;;;;;;;;;21.10;60.20;;;;;;490922;240;1177;-75
2021/06/23 05:42:56;;;;;;;;;;;21.10;60.20;;;;;;491229;240;2140;-75
2021/06/23 05:44:57;;;;;;;;;;;21.10;60.20;;;;;;491231;240;971;-75
2021/06/23 05:46:59;;;;;;;;;;;21.10;60.30;;;;;;491180;240;1190;-75
2021/06/23 05:49:00;;;;;;;;;;;21.10;60.30;;;;;;491011;240;975;-75
2021/06/23 05:51:01;;;;;;;;;;;21.10;60.30;;;;;;490820;240;1309;-75
2021/06/23 05:53:03;;;;;;;;;;;21.10;60.30;;;;;;491044;240;1150;-75
2021/06/23 05:55:04;;;;;;;;;;;21.00;60.30;;;;;;491088;240;1054;-75
2021/06/23 05:57:05;;;;;;;;;;;21.00;60.40;;;;;;491092;240;1099;-75
2021/06/23 05:59:07;;;;;;;;;;;21.10;60.30;;;;;;491063;240;991;-75
2021/06/23 06:01:08;;;;;;;;;;;21.10;60.30;;;;;;490965;240;1330;-75
2021/06/23 06:03:09;;;;;;;;;;;21.10;60.30;;;;;;491079;240;2191;-75
2021/06/23 06:05:12;;;;;;;;;;;21.00;60.40;;;;;;491039;240;1038;-75
2021/06/23 06:07:14;;;;;;;;;;;21.10;60.50;;;;;;490957;240;1074;-75
2021/06/23 06:09:15;;;;;;;;;;;21.10;60.30;;;;;;491145;240;1157;-75
2021/06/23 06:11:16;;;;;;;;;;;21.10;60.30;;;;;;490993;240;1246;-75
2021/06/23 06:13:18;;;;;;;;;;;21.10;60.30;;;;;;491007;240;1109;-75
2021/06/23 06:15:19;;;;;;;;;;;21.10;60.30;;;;;;490861;240;1042;-75
2021/06/23 06:17:20;;;;;;;;;;;21.10;60.30;;;;;;491033;240;1047;-75
2021/06/23 06:19:22;;;;;;;;;;;21.10;60.20;;;;;;490891;240;1018;-75
2021/06/23 06:21:23;;;;;;;;;;;21.10;60.20;;;;;;490857;240;1237;-75
2021/06/23 06:23:25;;;;;;;;;;;21.10;60.20;;;;;;490800;240;2191;-75
2021/06/23 06:25:26;;;;;;;;;;;21.10;60.30;;;;;;490858;240;1177;-75
2021/06/23 06:27:27;;;;;;;;;;;21.10;60.30;;;;;;490821;240;1070;-75
2021/06/23 06:29:29;;;;;;;;;;;21.10;60.40;;;;;;490601;240;1048;-75
2021/06/23 06:31:30;;;;;;;;;;;21.10;60.50;;;;;;490556;240;1344;-75
2021/06/23 06:33:31;;;;;;;;;;;21.10;60.50;;;;;;490846;240;1086;-75
2021/06/23 06:35:33;;;;;;;;;;;21.10;60.40;;;;;;490798;240;1091;-75
2021/06/23 06:37:34;;;;;;;;;;;21.10;60.50;;;;;;490861;240;1073;-75
2021/06/23 06:39:35;;;;;;;;;;;21.10;60.50;;;;;;490713;240;1177;-75
2021/06/23 06:41:37;;;;;;;;;;;21.10;60.50;;;;;;490655;240;1125;-75
2021/06/23 06:43:38;;;;;;;;;;;21.10;60.60;;;;;;490658;240;2188;-75
2021/06/23 06:45:39;;;;;;;;;;;21.10;60.60;;;;;;490665;240;1098;-75
2021/06/23 06:47:40;;;;;;;;;;;21.10;60.60;;;;;;490691;240;1101;-75
2021/06/23 06:49:42;;;;;;;;;;;21.10;60.60;;;;;;490864;240;1042;-75
2021/06/23 06:51:43;;;;;;;;;;;21.00;60.60;;;;;;490778;240;1123;-75
2021/06/23 06:53:44;;;;;;;;;;;21.00;60.60;;;;;;490722;240;1157;-75
2021/06/23 06:55:46;;;;;;;;;;;21.10;60.60;;;;;;490584;240;1341;-75
2021/06/23 06:57:47;;;;;;;;;;;21.10;60.60;;;;;;490627;240;1091;-75
2021/06/23 06:59:48;;;;;;;;;;;21.10;60.50;;;;;;490813;240;1031;-75
2021/06/23 07:01:50;;;;;;;;;;;21.10;60.50;;;;;;490834;242;1348;-75
2021/06/23 07:03:51;;;;;;;;;;;21.10;60.50;;;;;;490878;240;2196;-75
2021/06/23 07:05:53;;;;;;;;;;;21.10;60.50;;;;;;490784;240;1210;-75
2021/06/23 07:07:54;;;;;;;;;;;21.10;60.60;;;;;;490682;240;1355;-75
2021/06/23 07:09:55;;;;;;;;;;;21.10;60.50;;;;;;490730;240;1181;-75
2021/06/23 07:11:57;;;;;;;;;;;21.20;60.50;;;;;;490802;240;1128;-75
2021/06/23 07:13:58;;;;;;;;;;;21.10;60.60;;;;;;490809;240;1042;-75
2021/06/23 07:15:59;;;;;;;;;;;21.10;60.80;;;;;;490850;240;1130;-75
2021/06/23 07:18:01;;;;;;;;;;;21.00;60.80;;;;;;490845;240;1112;-75
2021/06/23 07:20:02;;;;;;;;;;;21.10;60.70;;;;;;490638;240;1054;-75
2021/06/23 07:22:03;;;;;;;;;;;21.10;60.80;;;;;;490622;240;1058;-75
2021/06/23 07:24:05;;;;;;;;;;;21.10;60.80;;;;;;490882;240;2184;-75
2021/06/23 07:26:06;;;;;;;;;;;21.10;60.80;;;;;;490792;240;1178;-75
2021/06/23 07:28:11;;;;;;;;;;;21.10;60.70;;;;;;490812;240;1119;-75
2021/06/23 07:30:09;;;;;;;;;;;21.10;60.60;;;;;;490893;240;1414;-75
2021/06/23 07:32:13;;;;;;;;;;;21.10;60.50;;;;;;490646;240;1249;-75
2021/06/23 07:36:36;;;;;;;;;;;21.20;60.50;;;;;;490646;242;1227;-75
2021/06/23 07:38:36;;;;;;;;;;;21.20;60.40;;;;;;490697;240;1375;-75
2021/06/23 07:40:50;;;;;;;;;;;21.20;60.30;;;;;;490693;240;1210;-75
2021/06/23 07:42:45;;;;;;;;;;;21.20;60.40;;;;;;490942;240;2187;-75
2021/06/23 07:44:50;;;;;;;;;;;21.20;60.40;;;;;;490618;240;1157;-75
2021/06/23 07:46:52;;;;;;;;;;;21.20;60.40;;;;;;490500;240;1315;-75
2021/06/23 07:48:52;;;;;;;;;;;21.20;60.50;;;;;;490730;240;1393;-75
2021/06/23 07:50:55;;;;;;;;;;;21.20;60.50;;;;;;490769;240;1291;-75
2021/06/23 07:52:59;;;;;;;;;;;21.20;60.50;;;;;;490618;240;1291;-75
2021/06/23 07:55:03;;;;;;;;;;;21.20;60.50;;;;;;490918;240;1410;-75
2021/06/23 08:02:18;;;;;;;;;;;21.20;60.50;;;;;;490813;242;1231;-75
2021/06/23 08:10:56;;;;;;;;;;;21.20;60.50;;;;;;489889;241;1258;-74
2021/06/23 08:12:57;;;;;;;;;;;21.20;60.50;;;;;;490980;240;1236;-75
2021/06/23 08:14:58;;;;;;;;;;;21.20;60.50;;;;;;490772;240;1275;-75
2021/06/23 08:16:58;;;;;;;;;;;21.20;60.60;;;;;;490593;240;1358;-75
2021/06/23 08:19:00;;;;;;;;;;;21.20;60.50;;;;;;490794;240;1089;-75
2021/06/23 08:21:01;;;;;;;;;;;21.30;60.50;;;;;;490814;240;1201;-75
2021/06/23 08:23:02;;;;;;;;;;;21.20;60.50;;;;;;490813;240;2197;-75
2021/06/23 08:25:04;;;;;;;;;;;21.20;60.50;;;;;;490226;240;1047;-75
2021/06/23 08:27:05;;;;;;;;;;;21.20;60.50;;;;;;491121;240;1071;-75
2021/06/23 08:29:06;;;;;;;;;;;21.30;60.50;;;;;;490776;240;1006;-75
2021/06/23 08:31:08;;;;;;;;;;;21.20;60.50;;;;;;490708;240;1091;-75
2021/06/23 08:33:09;;;;;;;;;;;21.20;60.60;;;;;;490816;240;1028;-75
2021/06/23 08:35:10;;;;;;;;;;;21.20;60.70;;;;;;490735;240;1114;-75
2021/06/23 08:37:12;;;;;;;;;;;21.20;60.70;;;;;;490736;240;1063;-75
2021/06/23 08:39:13;;;;;;;;;;;21.20;60.60;;;;;;490807;240;1169;-75
2021/06/23 08:41:14;;;;;;;;;;;21.20;60.60;;;;;;490692;240;1306;-75
2021/06/23 08:43:16;;;;;;;;;;;21.30;60.50;;;;;;490775;240;2188;-75
2021/06/23 08:45:17;;;;;;;;;;;21.30;60.40;;;;;;490673;240;1065;-75
2021/06/23 08:47:18;;;;;;;;;;;21.30;60.30;;;;;;490592;240;1077;-75
2021/06/23 08:49:20;;;;;;;;;;;21.40;60.10;;;;;;490636;240;1057;-75
2021/06/23 08:51:22;;;;;;;;;;;21.40;59.90;;;;;;490538;240;1475;-75
2021/06/23 08:53:22;;;;;;;;;;;21.40;59.80;;;;;;490553;240;1338;-75
2021/06/23 08:55:24;;;;;;;;;;;21.50;59.70;;;;;;490579;240;1199;-75
2021/06/23 08:57:25;;;;;;;;;;;21.50;59.80;;;;;;490606;240;1121;-75
2021/06/23 08:59:26;;;;;;;;;;;21.50;59.80;;;;;;490630;240;1125;-75
2021/06/23 09:01:28;;;;;;;;;;;21.50;59.70;;;;;;490555;240;1000;-75
2021/06/23 09:03:29;;;;;;;;;;;21.50;59.60;;;;;;490658;240;2196;-75
2021/06/23 09:05:30;;;;;;;;;;;21.60;59.60;;;;;;490773;240;1078;-75
2021/06/23 09:07:32;;;;;;;;;;;21.60;59.40;;;;;;490848;240;1063;-75
2021/06/23 09:09:34;;;;;;;;;;;21.70;59.30;;;;;;490664;240;1020;-75
2021/06/23 09:11:34;;;;;;;;;;;21.60;59.30;;;;;;490618;240;1427;-75
2021/06/23 09:13:36;;;;;;;;;;;21.50;59.50;;;;;;490719;240;1032;-75
2021/06/23 09:15:37;;;;;;;;;;;21.30;60.10;;;;;;490753;240;1193;-75
2021/06/23 09:17:38;;;;;;;;;;;21.10;60.80;;;;;;490807;240;1020;-75
2021/06/23 09:19:40;;;;;;;;;;;21.10;61.20;;;;;;490727;240;1058;-75
2021/06/23 09:21:41;;;;;;;;;;;21.10;61.10;;;;;;490743;240;1241;-75
2021/06/23 09:23:42;;;;;;;;;;;21.30;60.70;;;;;;490130;240;2432;-75
2021/06/23 09:25:45;;;;;;;;;;;21.50;59.90;;;;;;490717;240;1275;-75
2021/06/23 09:27:47;;;;;;;;;;;21.70;59.50;;;;;;490569;240;1151;-75
2021/06/23 09:29:50;;;;;;;;;;;21.80;59.00;;;;;;490544;240;1027;-75
2021/06/23 09:31:49;;;;;;;;;;;21.90;58.80;;;;;;490601;240;1381;-75
2021/06/23 09:33:54;;;;;;;;;;;22.00;58.60;;;;;;490470;240;1084;-75
2021/06/23 09:35:52;;;;;;;;;;;21.90;58.70;;;;;;490548;240;1285;-75
2021/06/23 09:37:53;;;;;;;;;;;21.80;58.90;;;;;;490502;240;1140;-75
2021/06/23 09:39:55;;;;;;;;;;;21.70;59.10;;;;;;489998;240;1093;-75
2021/06/23 09:41:56;;;;;;;;;;;21.70;59.10;;;;;;490660;240;1171;-75
2021/06/23 09:43:57;;;;;;;;;;;21.80;59.00;;;;;;490625;240;2164;-75
2021/06/23 09:45:59;;;;;;;;;;;21.90;58.80;;;;;;490859;240;1402;-75
2021/06/23 09:48:00;;;;;;;;;;;22.00;58.50;;;;;;490907;240;1109;-75
2021/06/23 09:50:01;;;;;;;;;;;22.10;58.10;;;;;;490712;240;1015;-75
2021/06/23 09:52:03;;;;;;;;;;;22.10;58.10;;;;;;490769;240;1094;-75
2021/06/23 09:54:04;;;;;;;;;;;22.10;58.20;;;;;;490719;240;1002;-75
2021/06/23 09:56:05;;;;;;;;;;;22.00;58.20;;;;;;490634;240;1126;-75
2021/06/23 09:58:07;;;;;;;;;;;22.00;58.30;;;;;;490588;240;1214;-75
2021/06/23 10:00:08;;;;;;;;;;;22.10;58.20;;;;;;490533;240;1282;-75
2021/06/23 10:02:10;;;;;;;;;;;22.00;58.30;;;;;;490585;240;1055;-75
2021/06/23 10:04:11;;;;;;;;;;;22.10;58.30;;;;;;490568;240;2200;-75
2021/06/23 10:06:12;;;;;;;;;;;22.10;58.20;;;;;;490570;240;1053;-75
2021/06/23 10:08:14;;;;;;;;;;;22.10;58.30;;;;;;490586;240;1164;-75
2021/06/23 10:10:16;;;;;;;;;;;22.10;58.20;;;;;;490445;240;1024;-75
2021/06/23 10:12:17;;;;;;;;;;;22.10;58.20;;;;;;490467;240;1321;-75
2021/06/23 10:14:18;;;;;;;;;;;22.10;58.20;;;;;;490564;240;1033;-76
2021/06/23 10:16:20;;;;;;;;;;;22.10;58.20;;;;;;490465;240;1099;-75
2021/06/23 10:18:21;;;;;;;;;;;22.00;58.30;;;;;;490462;240;1059;-75
2021/06/23 10:20:22;;;;;;;;;;;22.10;58.10;;;;;;490422;240;1025;-75
2021/06/23 10:22:24;;;;;;;;;;;22.00;58.20;;;;;;490498;240;1048;-75
2021/06/23 10:24:25;;;;;;;;;;;22.00;58.30;;;;;;490599;240;2181;-75
2021/06/23 10:26:26;;;;;;;;;;;22.00;58.40;;;;;;490732;240;1169;-75
2021/06/23 10:28:28;;;;;;;;;;;22.00;58.30;;;;;;490707;240;1018;-75
2021/06/23 10:30:29;;;;;;;;;;;22.00;58.40;;;;;;490709;240;1135;-75
2021/06/23 10:32:30;;;;;;;;;;;22.00;58.30;;;;;;490673;240;1131;-75
2021/06/23 10:34:32;;;;;;;;;;;21.80;58.60;;;;;;490800;240;1017;-75
2021/06/23 10:36:33;;;;;;;;;;;21.80;58.80;;;;;;490836;240;1056;-75
2021/06/23 10:38:34;;;;;;;;;;;21.70;58.70;;;;;;491004;240;1024;-75
2021/06/23 10:40:37;;;;;;;;;;;21.70;58.80;;;;;;490617;240;1192;-75
2021/06/23 10:42:37;;;;;;;;;;;21.70;58.80;;;;;;490607;240;1295;-75
2021/06/23 10:44:41;;;;;;;;;;;21.70;58.80;;;;;;490557;240;2183;-75
2021/06/23 10:46:41;;;;;;;;;;;21.60;59.00;;;;;;490698;240;1333;-75
2021/06/23 10:48:42;;;;;;;;;;;21.70;58.80;;;;;;490868;240;753;-75
2021/06/23 10:50:44;;;;;;;;;;;21.70;58.70;;;;;;490651;240;1034;-75
2021/06/23 10:52:45;;;;;;;;;;;21.70;58.60;;;;;;490497;240;838;-75
2021/06/23 10:54:46;;;;;;;;;;;21.70;58.60;;;;;;490651;240;978;-74
2021/06/23 10:56:48;;;;;;;;;;;21.70;58.60;;;;;;490576;240;1258;-75
2021/06/23 10:58:49;;;;;;;;;;;21.80;58.60;;;;;;490597;240;1066;-74
2021/06/23 11:00:50;;;;;;;;;;;21.70;58.60;;;;;;490584;240;1249;-76
2021/06/23 11:02:52;;;;;;;;;;;21.80;58.40;;;;;;490970;240;1065;-75
2021/06/23 11:04:53;;;;;;;;;;;21.80;58.30;;;;;;491094;240;2184;-75
2021/06/23 11:06:54;;;;;;;;;;;21.80;58.20;;;;;;490642;240;1188;-75
2021/06/23 11:08:56;;;;;;;;;;;21.80;58.20;;;;;;491048;240;828;-75
2021/06/23 11:10:57;;;;;;;;;;;21.80;58.10;;;;;;491117;240;1142;-75
2021/06/23 11:12:58;;;;;;;;;;;21.70;58.40;;;;;;490777;240;1099;-75
2021/06/23 11:15:00;;;;;;;;;;;21.70;58.50;;;;;;490442;240;1090;-75
2021/06/23 11:17:01;;;;;;;;;;;21.70;58.40;;;;;;490441;240;1148;-75
2021/06/23 11:19:02;;;;;;;;;;;21.70;58.50;;;;;;490407;240;1052;-75
2021/06/23 11:21:04;;;;;;;;;;;21.60;58.60;;;;;;490373;240;1059;-75
2021/06/23 11:23:05;;;;;;;;;;;21.60;58.70;;;;;;490481;240;1434;-75
2021/06/23 11:25:06;;;;;;;;;;;21.60;58.80;;;;;;490494;240;2172;-75
2021/06/23 11:27:07;;;;;;;;;;;21.60;58.80;;;;;;490496;240;1138;-75
2021/06/23 11:29:09;;;;;;;;;;;21.70;58.70;;;;;;490385;240;1104;-75
2021/06/23 11:31:10;;;;;;;;;;;21.60;58.80;;;;;;490528;240;1189;-75
2021/06/23 11:33:11;;;;;;;;;;;21.70;58.60;;;;;;490750;240;1184;-75
2021/06/23 11:35:13;;;;;;;;;;;21.70;58.60;;;;;;490585;240;1064;-75
2021/06/23 11:37:14;;;;;;;;;;;21.70;58.60;;;;;;491019;240;1124;-75
2021/06/23 11:39:16;;;;;;;;;;;21.70;58.60;;;;;;491095;240;834;-75
2021/06/23 11:41:17;;;;;;;;;;;21.70;58.60;;;;;;490982;240;1046;-75
2021/06/23 11:43:18;;;;;;;;;;;21.80;58.50;;;;;;491185;240;1062;-75
2021/06/23 11:45:20;;;;;;;;;;;21.70;58.50;;;;;;491054;240;2179;-75
2021/06/23 11:47:21;;;;;;;;;;;21.70;58.50;;;;;;490565;240;1447;-75
2021/06/23 11:49:22;;;;;;;;;;;21.80;58.50;;;;;;491017;240;810;-75
2021/06/23 11:51:24;;;;;;;;;;;21.80;58.40;;;;;;491003;240;1190;-75
2021/06/23 11:53:25;;;;;;;;;;;21.70;58.50;;;;;;490959;240;1054;-75
2021/06/23 11:55:26;;;;;;;;;;;21.80;58.50;;;;;;491396;240;1176;-75
2021/06/23 11:57:28;;;;;;;;;;;21.70;58.60;;;;;;490818;240;1385;-75
2021/06/23 11:59:29;;;;;;;;;;;21.80;58.60;;;;;;491245;240;1135;-76
2021/06/23 12:01:30;;;;;;;;;;;21.80;58.60;;;;;;490809;240;1343;-76
2021/06/23 12:03:32;;;;;;;;;;;21.80;58.50;;;;;;490748;240;1236;-76
2021/06/23 12:05:33;;;;;;;;;;;21.70;58.60;;;;;;490319;240;2136;-75
2021/06/23 12:07:34;;;;;;;;;;;21.80;58.40;;;;;;490236;240;1141;-76
2021/06/23 12:09:35;;;;;;;;;;;21.80;58.40;;;;;;491009;240;771;-76
2021/06/23 12:11:37;;;;;;;;;;;21.80;58.50;;;;;;491330;240;1157;-76